Time;durP1;ratioP1;P1;durP2;ratioP2;P2;SDS_P1;SDS_P2;PMS_P1;PMS_P2;Temp;Humidity;BMP_temperature;BMP_pressure;BME280_temperature;BME280_humidity;BME280_pressure;Samples;Min_cycle;Max_cycle;Signal;HPM_P1;HPM_P2
2023/12/30 00:01:25;;;;;;;;;2.00;1.00;;;;;10.16;100.00;101465.59;5041233;28;45254;-80
2023/12/30 00:03:51;;;;;;;;;4.33;2.00;;;;;10.34;100.00;101491.34;5023154;28;45777;-81
2023/12/30 00:06:18;;;;;;;;;1.33;1.00;;;;;10.21;100.00;101470.72;5037227;28;45585;-81
2023/12/30 00:08:44;;;;;;;;;3.33;1.67;;;;;10.21;100.00;101468.06;5040599;28;45486;-80
2023/12/30 00:11:09;;;;;;;;;2.00;2.00;;;;;10.30;100.00;101484.47;5044633;28;45487;-80
2023/12/30 00:13:37;;;;;;;;;2.67;1.67;;;;;10.41;100.00;101482.31;5039889;28;45498;-80
2023/12/30 00:16:02;;;;;;;;;5.00;2.33;;;;;10.38;100.00;101473.59;5023131;28;45614;-80
2023/12/30 00:18:27;;;;;;;;;4.00;1.00;;;;;10.29;100.00;101468.66;5020461;28;46528;-80
2023/12/30 00:20:53;;;;;;;;;4.33;3.00;;;;;10.36;100.00;101476.31;5036347;28;45322;-81
2023/12/30 00:23:18;;;;;;;;;4.33;1.67;;;;;10.26;100.00;101440.56;5037954;28;54331;-80
2023/12/30 00:25:43;;;;;;;;;3.00;3.00;;;;;10.42;100.00;101462.88;5018244;28;45460;-80
2023/12/30 00:28:09;;;;;;;;;1.33;1.33;;;;;10.49;100.00;101468.81;5040922;28;45799;-80
2023/12/30 00:30:34;;;;;;;;;3.33;1.00;;;;;10.33;100.00;101438.56;5040820;28;45361;-80
2023/12/30 00:32:59;;;;;;;;;2.00;1.33;;;;;10.41;100.00;101452.34;5039505;28;45416;-80
2023/12/30 00:35:25;;;;;;;;;8.67;2.00;;;;;10.51;100.00;101481.97;5039370;28;45514;-80
2023/12/30 00:37:53;;;;;;;;;3.00;1.67;;;;;10.31;100.00;101454.47;5041283;28;46284;-80
2023/12/30 00:40:18;;;;;;;;;4.33;2.00;;;;;10.48;100.00;101469.72;5040706;28;45456;-80
2023/12/30 00:42:43;;;;;;;;;3.33;2.00;;;;;10.49;100.00;101479.38;5045849;28;46217;-80
2023/12/30 00:45:09;;;;;;;;;2.33;2.33;;;;;10.53;100.00;101475.72;5038214;28;53513;-80
2023/12/30 00:47:34;;;;;;;;;3.00;1.67;;;;;10.44;100.00;101458.38;5049506;28;45712;-81
2023/12/30 00:49:59;;;;;;;;;2.00;2.00;;;;;10.52;100.00;101474.00;5022923;28;45516;-80
2023/12/30 00:52:24;;;;;;;;;1.33;1.33;;;;;10.23;100.00;101423.94;5040016;28;52999;-80
2023/12/30 00:54:50;;;;;;;;;2.00;2.00;;;;;10.35;100.00;101444.63;5038737;28;53127;-80
2023/12/30 00:57:15;;;;;;;;;4.00;1.00;;;;;10.30;100.00;101451.88;5039958;28;50247;-80
2023/12/30 00:59:40;;;;;;;;;2.00;2.00;;;;;10.44;100.00;101473.38;5038385;28;60246;-81
2023/12/30 01:02:06;;;;;;;;;4.00;3.00;;;;;10.26;100.00;101453.78;5039104;28;53171;-80
2023/12/30 01:04:31;;;;;;;;;2.33;2.33;;;;;10.33;100.00;101462.34;5040442;28;45265;-80
2023/12/30 01:06:57;;;;;;;;;2.00;2.00;;;;;10.32;100.00;101468.53;5022349;28;45463;-80
2023/12/30 01:09:22;;;;;;;;;2.00;2.00;;;;;10.06;100.00;101428.91;5040315;28;45263;-80
2023/12/30 01:11:47;;;;;;;;;4.33;2.00;;;;;10.23;100.00;101475.03;5021571;28;45329;-80
2023/12/30 01:14:13;;;;;;;;;2.00;1.67;;;;;10.19;100.00;101475.19;5023223;28;45354;-80
2023/12/30 01:16:38;;;;;;;;;3.67;1.00;;;;;9.76;100.00;101413.19;5039565;28;45939;-80
2023/12/30 01:19:04;;;;;;;;;3.67;0.67;;;;;9.93;100.00;101437.28;5040129;28;45323;-81
2023/12/30 01:21:29;;;;;;;;;2.00;2.00;;;;;10.00;100.00;101460.84;5022118;28;45740;-80
2023/12/30 01:23:54;;;;;;;;;2.00;1.00;;;;;10.17;100.00;101488.47;5039617;28;45611;-81
2023/12/30 01:26:19;;;;;;;;;4.00;3.00;;;;;10.03;100.00;101463.38;5039763;28;45380;-80
2023/12/30 01:28:45;;;;;;;;;3.33;2.00;;;;;10.06;100.00;101477.34;5039483;28;52569;-80
2023/12/30 01:31:11;;;;;;;;;1.00;1.00;;;;;10.10;100.00;101488.69;5021521;28;45314;-80
2023/12/30 01:33:36;;;;;;;;;3.00;2.00;;;;;9.97;100.00;101468.88;5038574;28;45516;-80
2023/12/30 01:36:03;;;;;;;;;1.00;0.67;;;;;9.93;100.00;101468.97;5034208;28;47402;-80
2023/12/30 01:38:28;;;;;;;;;4.67;1.67;;;;;9.90;100.00;101468.22;5020636;28;45471;-80
2023/12/30 01:40:55;;;;;;;;;1.33;1.33;;;;;9.82;100.00;101457.03;5021420;28;45514;-80
2023/12/30 01:43:29;;;;;;;;;3.00;2.00;;;;;9.93;100.00;101482.19;5022044;28;46139;-81
2023/12/30 01:45:58;;;;;;;;;0.33;0.33;;;;;9.89;100.00;101483.19;5039407;28;45571;-80
2023/12/30 01:48:24;;;;;;;;;3.33;2.00;;;;;9.74;100.00;101452.03;5038682;28;45281;-80
2023/12/30 01:50:51;;;;;;;;;2.00;1.00;;;;;9.91;100.00;101497.22;5039534;28;45234;-80
2023/12/30 01:53:19;;;;;;;;;1.33;1.33;;;;;9.89;100.00;101487.63;5038110;28;45716;-81
2023/12/30 01:55:49;;;;;;;;;8.00;2.00;;;;;9.79;100.00;101486.19;5038047;28;45425;-80
2023/12/30 01:58:15;;;;;;;;;2.00;2.00;;;;;9.73;100.00;101479.34;5039681;28;45292;-80
2023/12/30 02:00:42;;;;;;;;;3.00;3.00;;;;;9.71;100.00;101494.41;5039590;28;45283;-81
2023/12/30 02:03:07;;;;;;;;;3.00;1.67;;;;;9.67;100.00;101466.34;5039529;28;45460;-80
2023/12/30 02:05:33;;;;;;;;;6.00;2.67;;;;;9.76;100.00;101497.72;5024698;28;47246;-81
2023/12/30 02:07:59;;;;;;;;;7.67;3.00;;;;;9.38;100.00;101432.09;5043639;28;45523;-81
2023/12/30 02:10:24;;;;;;;;;2.00;2.00;;;;;9.61;100.00;101485.03;5038095;28;45427;-80
2023/12/30 02:12:49;;;;;;;;;3.00;2.00;;;;;9.64;100.00;101495.50;5039127;28;45433;-80
2023/12/30 02:15:21;;;;;;;;;1.33;1.00;;;;;9.60;100.00;101483.31;5040667;28;45520;-81
2023/12/30 02:17:51;;;;;;;;;5.00;1.33;;;;;9.76;100.00;101524.16;5035586;28;45511;-80
2023/12/30 02:20:17;;;;;;;;;1.67;1.67;;;;;9.55;100.00;101484.38;5021108;28;45440;-80
2023/12/30 02:22:44;;;;;;;;;2.00;2.00;;;;;9.73;100.00;101518.97;5020931;28;45596;-80
2023/12/30 02:25:10;;;;;;;;;1.00;1.00;;;;;9.70;100.00;101523.47;5038915;28;45409;-81
2023/12/30 02:27:35;;;;;;;;;4.33;2.00;;;;;9.62;100.00;101512.31;5038457;28;45380;-80
2023/12/30 02:30:01;;;;;;;;;1.00;1.00;;;;;9.32;100.00;101470.13;5037616;28;45262;-80
2023/12/30 02:32:26;;;;;;;;;2.67;2.67;;;;;9.70;100.00;101527.00;5020054;28;45515;-80
2023/12/30 02:34:52;;;;;;;;;4.00;2.67;;;;;9.72;100.00;101529.56;5038989;28;45346;-81
2023/12/30 02:37:17;;;;;;;;;5.00;1.33;;;;;9.64;100.00;101515.75;5027709;28;50929;-80
2023/12/30 02:39:42;;;;;;;;;4.67;2.00;;;;;9.68;100.00;101526.19;5034336;28;45431;-80
2023/12/30 02:42:07;;;;;;;;;3.00;1.33;;;;;9.53;100.00;101508.16;5038118;28;47502;-81
2023/12/30 02:44:33;;;;;;;;;2.00;2.00;;;;;9.52;100.00;101509.06;5035805;28;48311;-80
2023/12/30 02:46:58;;;;;;;;;4.00;1.00;;;;;9.37;100.00;101491.94;5042661;28;45360;-81
2023/12/30 02:49:23;;;;;;;;;2.67;1.67;;;;;9.35;100.00;101490.28;5036979;28;54418;-81
2023/12/30 02:51:49;;;;;;;;;3.00;1.67;;;;;9.42;100.00;101513.78;5020176;28;45735;-81
2023/12/30 02:54:14;;;;;;;;;2.00;2.00;;;;;9.55;100.00;101534.53;5016364;28;58517;-81
2023/12/30 02:56:39;;;;;;;;;4.00;1.67;;;;;9.35;100.00;101495.56;5017104;28;55856;-80
2023/12/30 02:59:05;;;;;;;;;1.00;1.00;;;;;9.43;100.00;101520.78;5017990;28;59984;-81
2023/12/30 03:01:31;;;;;;;;;5.67;2.00;;;;;9.47;100.00;101528.63;5015287;28;45572;-80
2023/12/30 03:04:00;;;;;;;;;4.00;2.00;;;;;9.23;100.00;101507.34;5037488;28;48413;-80
2023/12/30 03:06:26;;;;;;;;;2.00;1.00;;;;;9.35;100.00;101525.47;5021095;28;46104;-80
2023/12/30 03:08:52;;;;;;;;;1.00;1.00;;;;;9.39;100.00;101539.44;5033316;28;45437;-80
2023/12/30 03:11:18;;;;;;;;;2.00;2.00;;;;;9.36;100.00;101535.09;5020326;28;45540;-80
2023/12/30 03:13:44;;;;;;;;;2.33;1.33;;;;;9.23;100.00;101517.03;5020127;28;45435;-81
2023/12/30 03:16:16;;;;;;;;;2.00;2.00;;;;;9.32;100.00;101529.97;5045981;28;45372;-80
2023/12/30 03:18:43;;;;;;;;;3.00;1.67;;;;;9.06;100.00;101485.91;5037841;28;45485;-81
2023/12/30 03:21:11;;;;;;;;;4.00;2.33;;;;;9.30;100.00;101537.06;5020168;28;45354;-81
2023/12/30 03:23:37;;;;;;;;;4.00;2.00;;;;;9.22;100.00;101525.88;5033242;28;47245;-81
2023/12/30 03:26:07;;;;;;;;;4.33;1.33;;;;;9.27;100.00;101534.50;5034098;28;45285;-80
2023/12/30 03:28:33;;;;;;;;;2.33;1.33;;;;;9.13;100.00;101515.59;5041243;28;45334;-81
2023/12/30 03:30:58;;;;;;;;;0.00;0.00;;;;;9.13;100.00;101519.06;5040211;28;45339;-80
2023/12/30 03:33:24;;;;;;;;;7.00;3.00;;;;;9.19;100.00;101533.88;5023504;28;45472;-80
2023/12/30 03:35:50;;;;;;;;;2.67;1.00;;;;;9.05;100.00;101522.88;5026507;28;45456;-80
2023/12/30 03:38:15;;;;;;;;;2.67;1.00;;;;;9.17;100.00;101544.47;5021647;28;45628;-80
2023/12/30 03:40:40;;;;;;;;;3.67;2.00;;;;;9.10;100.00;101536.78;5019887;28;45387;-80
2023/12/30 03:43:06;;;;;;;;;3.33;1.67;;;;;9.11;100.00;101535.88;5021576;28;46299;-80
2023/12/30 03:45:31;;;;;;;;;2.00;1.00;;;;;8.94;100.00;101509.09;5022781;28;51826;-81
2023/12/30 03:47:56;;;;;;;;;3.00;2.00;;;;;9.02;100.00;101522.97;5026896;28;45422;-80
2023/12/30 03:50:22;;;;;;;;;2.67;1.33;;;;;9.13;100.00;101544.63;5041469;28;45309;-80
2023/12/30 03:52:47;;;;;;;;;3.00;1.00;;;;;8.97;100.00;101524.84;5048807;28;46051;-81
2023/12/30 03:55:13;;;;;;;;;1.00;1.00;;;;;8.97;100.00;101520.44;5047456;28;45372;-81
2023/12/30 03:57:38;;;;;;;;;5.33;1.33;;;;;9.04;100.00;101536.97;5024038;28;45313;-81
2023/12/30 04:00:04;;;;;;;;;4.00;1.00;;;;;8.79;100.00;101492.84;5024095;28;45423;-81
2023/12/30 04:02:30;;;;;;;;;2.67;2.00;;;;;8.96;100.00;101523.16;5041300;28;45466;-81
2023/12/30 04:04:55;;;;;;;;;1.33;1.00;;;;;8.98;100.00;101522.19;5040638;28;45447;-81
2023/12/30 04:07:21;;;;;;;;;3.33;1.33;;;;;8.76;100.00;101486.78;5023671;28;45330;-82
2023/12/30 04:09:46;;;;;;;;;4.33;1.00;;;;;8.88;100.00;101510.16;5019931;28;45355;-81
2023/12/30 04:12:11;;;;;;;;;2.00;2.00;;;;;8.92;100.00;101525.00;5034826;28;45296;-81
2023/12/30 04:14:37;;;;;;;;;2.67;2.00;;;;;8.88;100.00;101515.44;5051875;28;45317;-81
2023/12/30 04:17:02;;;;;;;;;4.67;2.00;;;;;8.93;100.00;101532.00;5022880;28;45439;-80
2023/12/30 04:19:28;;;;;;;;;3.00;1.67;;;;;8.86;100.00;101522.53;5021809;28;45507;-81
2023/12/30 04:21:53;;;;;;;;;1.67;1.67;;;;;8.96;100.00;101534.56;5034951;28;45412;-80
2023/12/30 04:24:19;;;;;;;;;2.00;0.00;;;;;8.84;100.00;101519.94;5040349;28;53001;-81
2023/12/30 04:26:45;;;;;;;;;5.00;2.00;;;;;8.81;100.00;101511.25;5040334;28;45511;-81
2023/12/30 04:29:10;;;;;;;;;7.67;1.67;;;;;8.98;100.00;101526.59;5022860;28;45573;-81
2023/12/30 04:31:36;;;;;;;;;1.67;1.67;;;;;8.89;100.00;101512.78;5038769;28;45414;-80
2023/12/30 04:34:01;;;;;;;;;1.67;1.00;;;;;8.93;100.00;101523.22;5022949;28;45535;-80
2023/12/30 04:36:26;;;;;;;;;2.00;2.00;;;;;8.85;100.00;101508.47;5040751;28;45643;-81
2023/12/30 04:38:51;;;;;;;;;2.67;2.00;;;;;8.89;100.00;101510.13;5035661;28;45630;-81
2023/12/30 04:41:17;;;;;;;;;5.00;1.00;;;;;8.77;100.00;101497.28;5038896;28;56116;-80
2023/12/30 04:43:42;;;;;;;;;2.67;1.00;;;;;8.86;100.00;101512.00;5036343;28;45507;-81
2023/12/30 04:46:08;;;;;;;;;6.33;2.33;;;;;8.95;100.00;101517.00;5020971;28;56310;-81
2023/12/30 04:48:34;;;;;;;;;4.00;2.00;;;;;8.95;100.00;101524.03;5027842;28;45629;-81
2023/12/30 04:50:59;;;;;;;;;5.00;2.00;;;;;8.81;100.00;101511.25;5033832;28;45401;-81
2023/12/30 04:53:25;;;;;;;;;3.33;2.00;;;;;8.79;100.00;101498.13;5022365;28;45412;-80
2023/12/30 04:55:50;;;;;;;;;1.67;1.00;;;;;8.94;100.00;101524.94;5040022;28;45583;-81
2023/12/30 04:58:17;;;;;;;;;2.00;0.33;;;;;8.85;100.00;101519.03;5038989;28;45842;-81
2023/12/30 05:00:42;;;;;;;;;2.00;2.00;;;;;8.73;100.00;101498.28;5040207;28;45429;-80
2023/12/30 05:03:07;;;;;;;;;2.33;1.33;;;;;8.51;100.00;101481.31;5038548;28;45531;-80
2023/12/30 05:05:33;;;;;;;;;1.67;1.00;;;;;8.80;100.00;101513.00;5047915;28;45343;-81
2023/12/30 05:07:58;;;;;;;;;4.00;1.00;;;;;8.84;100.00;101530.47;5023324;28;45414;-81
2023/12/30 05:10:23;;;;;;;;;1.00;1.00;;;;;8.74;100.00;101505.28;5040550;28;45404;-80
2023/12/30 05:12:49;;;;;;;;;6.00;1.00;;;;;8.87;100.00;101518.97;5021940;28;45462;-81
2023/12/30 05:15:14;;;;;;;;;1.33;1.33;;;;;8.76;100.00;101492.06;5022508;28;45388;-80
2023/12/30 05:17:40;;;;;;;;;2.00;0.00;;;;;8.89;100.00;101520.69;5043475;28;45425;-81
2023/12/30 05:20:08;;;;;;;;;2.00;0.00;;;;;8.77;100.00;101492.00;5044436;28;45751;-81
2023/12/30 05:22:35;;;;;;;;;2.00;2.00;;;;;8.92;100.00;101511.81;5022104;28;45659;-81
2023/12/30 05:25:00;;;;;;;;;1.00;1.00;;;;;8.92;100.00;101513.59;5022548;28;45326;-81
2023/12/30 05:27:26;;;;;;;;;2.00;0.67;;;;;8.47;100.00;101434.91;5039649;28;45382;-81
2023/12/30 05:29:51;;;;;;;;;2.00;2.00;;;;;8.55;100.00;101466.28;5040004;28;45350;-81
2023/12/30 05:32:16;;;;;;;;;1.33;1.00;;;;;8.70;100.00;101477.25;5039246;28;45234;-81
2023/12/30 05:34:42;;;;;;;;;1.67;1.00;;;;;8.74;100.00;101483.31;5040277;28;45702;-81
2023/12/30 05:37:07;;;;;;;;;3.33;1.00;;;;;8.91;100.00;101512.72;5039588;28;45506;-81
2023/12/30 05:39:33;;;;;;;;;3.00;1.33;;;;;8.62;100.00;101466.09;5021833;28;47728;-81
2023/12/30 05:41:58;;;;;;;;;1.67;1.67;;;;;8.89;100.00;101501.34;5034636;28;45413;-81
2023/12/30 05:44:23;;;;;;;;;1.33;1.33;;;;;8.89;100.00;101506.63;5031436;28;45388;-81
2023/12/30 05:46:51;;;;;;;;;4.00;1.33;;;;;8.67;100.00;101468.59;5023195;28;45499;-80
2023/12/30 05:49:16;;;;;;;;;2.00;1.00;;;;;8.90;100.00;101510.97;5039021;28;46547;-81
2023/12/30 05:51:42;;;;;;;;;1.00;1.00;;;;;8.90;100.00;101501.28;5039233;28;45372;-81
2023/12/30 05:54:10;;;;;;;;;2.00;2.00;;;;;8.79;100.00;101490.22;5021502;28;45403;-81
2023/12/30 05:56:35;;;;;;;;;1.67;1.00;;;;;8.77;100.00;101483.22;5034556;28;45307;-81
2023/12/30 05:59:00;;;;;;;;;3.33;1.00;;;;;8.86;100.00;101499.69;5019878;28;45840;-81
2023/12/30 06:01:26;;;;;;;;;2.67;2.67;;;;;8.74;100.00;101481.53;5039404;28;45323;-81
2023/12/30 06:03:51;;;;;;;;;2.33;1.00;;;;;8.90;100.00;101490.75;5039255;28;45387;-81
2023/12/30 06:06:16;;;;;;;;;5.00;2.33;;;;;8.83;100.00;101490.97;5021394;28;50989;-81
2023/12/30 06:08:42;;;;;;;;;3.33;1.33;;;;;8.59;100.00;101441.56;5045578;28;45488;-81
2023/12/30 06:11:07;;;;;;;;;3.00;1.33;;;;;8.65;100.00;101459.84;5039364;28;45574;-81
2023/12/30 06:13:34;;;;;;;;;7.00;3.33;;;;;8.76;100.00;101473.59;5019315;28;45565;-81
2023/12/30 06:15:59;;;;;;;;;3.33;2.67;;;;;8.85;100.00;101491.78;5044090;28;45638;-81
2023/12/30 06:18:30;;;;;;;;;2.33;2.33;;;;;8.97;100.00;101507.25;5047576;28;45942;-81
2023/12/30 06:20:56;;;;;;;;;3.33;2.00;;;;;8.86;100.00;101486.47;5039279;28;45548;-81
2023/12/30 06:23:21;;;;;;;;;8.33;2.33;;;;;8.87;100.00;101482.91;5039290;28;45673;-81
2023/12/30 06:25:51;;;;;;;;;3.00;1.00;;;;;8.87;100.00;101497.88;5018068;28;45520;-81
2023/12/30 06:28:17;;;;;;;;;4.00;2.33;;;;;8.98;100.00;101506.34;5033680;28;45527;-81
2023/12/30 06:30:42;;;;;;;;;1.00;1.00;;;;;8.97;100.00;101520.44;5038925;28;45375;-80
2023/12/30 06:33:07;;;;;;;;;1.00;1.00;;;;;8.92;100.00;101516.22;5048079;28;45550;-80
2023/12/30 06:35:34;;;;;;;;;1.67;1.33;;;;;8.81;100.00;101509.47;5039353;28;45304;-80
2023/12/30 06:38:01;;;;;;;;;2.00;1.33;;;;;8.84;100.00;101525.22;5038753;28;45238;-80
2023/12/30 06:40:27;;;;;;;;;4.33;3.33;;;;;8.83;100.00;101512.91;5042560;28;45483;-80
2023/12/30 06:42:52;;;;;;;;;2.00;1.33;;;;;8.79;100.00;101500.75;5039012;28;45478;-80
2023/12/30 06:45:21;;;;;;;;;1.00;1.00;;;;;8.83;100.00;101506.81;5036943;28;45829;-80
2023/12/30 06:47:46;;;;;;;;;7.33;1.00;;;;;8.82;100.00;101510.34;5029788;28;47056;-80
2023/12/30 06:50:12;;;;;;;;;5.00;2.00;;;;;8.75;100.00;101504.38;5020730;28;45847;-80
2023/12/30 06:52:38;;;;;;;;;4.33;2.00;;;;;8.74;100.00;101512.31;5020498;28;45330;-80
2023/12/30 06:55:03;;;;;;;;;2.00;2.00;;;;;8.56;100.00;101489.13;5038409;28;48430;-80
2023/12/30 06:57:29;;;;;;;;;2.00;2.00;;;;;8.51;100.00;101491.03;5038332;28;45246;-80
2023/12/30 06:59:55;;;;;;;;;3.33;2.33;;;;;8.56;100.00;101503.16;5037304;28;45394;-80
2023/12/30 07:02:21;;;;;;;;;8.00;2.00;;;;;8.45;100.00;101480.63;5038041;28;45395;-80
2023/12/30 07:04:46;;;;;;;;;3.00;1.00;;;;;8.57;100.00;101511.94;5046056;28;45345;-80
2023/12/30 07:07:11;;;;;;;;;2.33;2.00;;;;;8.48;100.00;101497.22;5036506;28;47065;-80
2023/12/30 07:09:41;;;;;;;;;0.00;0.00;;;;;8.55;100.00;101509.34;5037055;28;45507;-79
2023/12/30 07:12:07;;;;;;;;;2.00;2.00;;;;;8.49;100.00;101498.97;5020220;28;45461;-80
2023/12/30 07:14:35;;;;;;;;;3.00;0.00;;;;;8.55;100.00;101509.34;5038486;28;45278;-80
2023/12/30 07:17:00;;;;;;;;;3.00;1.00;;;;;8.51;100.00;101520.88;5019906;28;47484;-80
2023/12/30 07:19:26;;;;;;;;;3.33;1.00;;;;;8.45;100.00;101497.31;5025367;28;45252;-80
2023/12/30 07:21:52;;;;;;;;;2.33;1.00;;;;;8.57;100.00;101515.47;5038622;28;45385;-80
2023/12/30 07:24:18;;;;;;;;;1.33;1.33;;;;;8.58;100.00;101509.25;5016771;28;45515;-80
2023/12/30 07:26:48;;;;;;;;;1.00;1.00;;;;;8.45;100.00;101488.53;5012832;28;46165;-80
2023/12/30 07:29:14;;;;;;;;;2.00;2.00;;;;;8.44;100.00;101481.56;5020656;28;45254;-80
2023/12/30 07:31:39;;;;;;;;;3.00;2.00;;;;;8.42;100.00;101492.13;5039436;28;45352;-83
2023/12/30 07:34:31;;;;;;;;;;;;;;;;;;;;;
2023/12/30 07:37:24;;;;;;;;;2.00;2.00;;;;;8.31;100.00;101481.03;5037273;28;75254;-83
2023/12/30 07:39:50;;;;;;;;;1.67;1.67;;;;;7.84;100.00;101401.47;5036325;28;45567;-84
2023/12/30 07:42:18;;;;;;;;;5.33;2.00;;;;;7.78;100.00;101404.25;5037372;28;45365;-83
2023/12/30 07:44:44;;;;;;;;;2.00;2.00;;;;;8.24;100.00;101447.81;5034275;28;45566;-83
2023/12/30 07:47:09;;;;;;;;;2.00;2.00;;;;;8.11;100.00;101443.78;5037211;28;46289;-84
2023/12/30 07:49:35;;;;;;;;;1.00;1.00;;;;;8.37;100.00;101457.16;5038061;28;45301;-83
2023/12/30 07:52:02;;;;;;;;;2.33;1.33;;;;;8.31;100.00;101441.50;5036654;28;45318;-84
2023/12/30 07:54:28;;;;;;;;;3.00;1.33;;;;;8.17;100.00;101433.06;5037999;28;45571;-83
2023/12/30 07:56:53;;;;;;;;;2.67;1.33;;;;;8.64;100.00;101516.13;5037111;28;46172;-82
2023/12/30 07:59:19;;;;;;;;;1.33;0.67;;;;;8.40;100.00;101470.22;5036823;28;45463;-82
2023/12/30 08:01:44;;;;;;;;;1.00;1.00;;;;;8.66;100.00;101520.47;5023345;28;45369;-82
2023/12/30 08:04:11;;;;;;;;;1.00;0.00;;;;;8.25;100.00;101445.13;5019371;28;45360;-82
2023/12/30 08:06:37;;;;;;;;;2.00;2.00;;;;;8.14;100.00;101452.47;5027287;28;46512;-84
2023/12/30 08:09:04;;;;;;;;;2.00;0.00;;;;;7.98;100.00;101408.13;5041819;28;45369;-85
2023/12/30 08:11:29;;;;;;;;;7.00;2.00;;;;;8.66;100.00;101528.38;5016673;28;45358;-85
2023/12/30 08:14:05;;;;;;;;;1.00;1.00;;;;;8.47;100.00;101492.00;5040694;28;45306;-85
2023/12/30 08:16:34;;;;;;;;;0.33;0.33;;;;;8.21;100.00;101417.13;5049691;28;47495;-82
2023/12/30 08:18:59;;;;;;;;;1.67;1.67;;;;;8.25;100.00;101449.50;5042112;28;45493;-86
2023/12/30 08:21:25;;;;;;;;;4.00;2.00;;;;;8.58;100.00;101474.97;5023081;28;45531;-84
2023/12/30 08:23:50;;;;;;;;;1.00;1.00;;;;;8.36;100.00;101432.56;5041487;28;45392;-87
2023/12/30 08:26:15;;;;;;;;;3.00;0.33;;;;;8.83;100.00;101501.53;5039977;28;46992;-83
2023/12/30 08:29:04;;;;;;;;;0.00;0.00;;;;;7.98;100.00;101340.53;5036321;28;45463;-86
2023/12/30 08:31:44;;;;;;;;;2.00;1.00;;;;;8.33;100.00;101426.50;5035025;28;45329;-82
2023/12/30 08:34:16;;;;;;;;;0.33;0.33;;;;;8.40;100.00;101414.88;5025401;28;45520;-82
2023/12/30 08:36:49;;;;;;;;;0.67;0.67;;;;;8.25;100.00;101352.88;5036333;28;48331;-82
2023/12/30 08:39:18;;;;;;;;;3.33;1.00;;;;;8.19;100.00;101324.09;5039329;28;45309;-82
2023/12/30 08:41:55;;;;;;;;;3.00;0.00;;;;;8.78;100.00;101432.22;5015113;28;45447;-84
2023/12/30 08:44:40;;;;;;;;;;;;;;;;;;;;;
2023/12/30 08:47:18;;;;;;;;;1.00;0.67;;;;;8.87;100.00;101403.78;5033097;28;75327;-84
2023/12/30 08:49:43;;;;;;;;;0.33;0.33;;;;;8.86;100.00;101391.53;5017145;28;45490;-84
2023/12/30 08:52:12;;;;;;;;;2.00;1.00;;;;;9.02;100.00;101391.91;5020845;28;45896;-81
2023/12/30 08:54:44;;;;;;;;;0.67;0.67;;;;;8.59;100.00;101322.94;5045220;28;45803;-84
2023/12/30 08:57:16;;;;;;;;;5.67;0.33;;;;;8.68;100.00;101341.97;5030921;28;47055;-84
2023/12/30 08:59:42;;;;;;;;;0.00;0.00;;;;;9.11;100.00;101369.63;5036943;28;45614;-87
2023/12/30 09:02:07;;;;;;;;;2.67;1.00;;;;;9.07;100.00;101374.16;5039113;28;45329;-81
2023/12/30 09:04:39;;;;;;;;;0.33;0.00;;;;;9.05;100.00;101359.28;5025652;28;45511;-81
2023/12/30 09:07:04;;;;;;;;;2.00;1.00;;;;;9.66;100.00;101469.03;5039867;28;45599;-82
2023/12/30 09:09:36;;;;;;;;;3.00;1.00;;;;;9.57;100.00;101432.34;5038843;28;45534;-81
2023/12/30 09:12:13;;;;;;;;;1.00;1.00;;;;;8.85;100.00;101299.25;5038356;28;45354;-82
2023/12/30 09:14:48;;;;;;;;;4.33;2.00;;;;;9.19;100.00;101349.16;5017364;28;45388;-81
2023/12/30 09:17:21;;;;;;;;;1.00;0.00;;;;;8.99;100.00;101317.28;5036857;28;46924;-81
2023/12/30 09:19:52;;;;;;;;;1.33;1.33;;;;;9.38;100.00;101374.91;5021929;28;45544;-82
2023/12/30 09:22:19;;;;;;;;;1.00;1.00;;;;;9.31;100.00;101341.69;5022168;28;45306;-81
2023/12/30 09:24:47;;;;;;;;;2.00;1.67;;;;;10.05;100.00;101472.09;5037471;28;45286;-82
2023/12/30 09:27:27;;;;;;;;;;;;;;;;;;;;;
2023/12/30 09:29:53;;;;;;;;;3.00;2.00;;;;;9.23;100.00;101313.81;5038400;28;72689;-80
2023/12/30 09:32:18;;;;;;;;;3.00;1.00;;;;;9.61;100.00;101368.84;5023365;28;45320;-80
2023/12/30 09:34:47;;;;;;;;;3.67;1.00;;;;;9.50;100.00;101368.31;5022545;28;45437;-82
2023/12/30 09:37:31;;;;;;;;;3.00;1.00;;;;;9.71;100.00;101372.91;5014612;28;45774;-81
2023/12/30 09:40:04;;;;;;;;;1.00;1.00;;;;;9.58;100.00;101344.31;5018897;28;45373;-80
2023/12/30 09:42:37;;;;;;;;;4.67;2.00;;;;;10.09;100.00;101447.31;5018904;28;45409;-80
2023/12/30 09:45:21;;;;;;;;;1.33;1.33;;;;;9.94;100.00;101402.03;5020700;28;45587;-83
2023/12/30 09:47:55;;;;;;;;;2.33;2.00;;;;;9.65;100.00;101361.69;5019482;28;45838;-81
2023/12/30 09:50:27;;;;;;;;;1.00;1.00;;;;;9.91;100.00;101391.53;5021632;28;45460;-82
2023/12/30 09:52:55;;;;;;;;;1.00;1.00;;;;;9.68;100.00;101348.38;5022665;28;45291;-81
2023/12/30 09:55:28;;;;;;;;;3.67;2.00;;;;;10.09;100.00;101411.16;5042549;28;45388;-81
2023/12/30 09:58:09;;;;;;;;;2.00;0.00;;;;;10.06;100.00;101405.13;5037829;28;45606;-81
2023/12/30 10:00:46;;;;;;;;;2.00;2.00;;;;;10.32;100.00;101464.13;5028098;28;45340;-80
2023/12/30 10:03:16;;;;;;;;;3.00;3.00;;;;;10.04;100.00;101384.06;5020075;28;45444;-81
2023/12/30 10:05:43;;;;;;;;;3.33;2.00;;;;;10.03;100.00;101392.03;5039060;28;45420;-81
2023/12/30 10:08:20;;;;;;;;;1.33;1.33;;;;;10.28;100.00;101406.97;5015063;28;48089;-81
2023/12/30 10:10:59;;;;;;;;;4.00;0.67;;;;;10.37;100.00;101419.84;5037469;28;45500;-81
2023/12/30 10:13:48;;;;;;;;;3.00;0.00;;;;;9.68;100.00;101304.34;5017352;28;45498;-82
2023/12/30 10:16:27;;;;;;;;;2.00;2.00;;;;;10.35;100.00;101394.41;5015859;28;45317;-82
2023/12/30 10:19:07;;;;;;;;;;;;;;;;;;;;;
2023/12/30 10:21:35;;;;;;;;;2.00;2.00;;;;;10.27;100.00;101362.97;5037975;28;72600;-79
2023/12/30 10:24:04;;;;;;;;;2.00;2.00;;;;;10.15;100.00;101323.75;5040406;28;45449;-80
2023/12/30 10:26:33;;;;;;;;;2.33;2.33;;;;;10.19;100.00;101303.38;5049563;28;45771;-80
2023/12/30 10:29:00;;;;;;;;;2.00;1.00;;;;;10.73;100.00;101396.47;5036415;28;46229;-82
2023/12/30 10:31:26;;;;;;;;;3.00;1.67;;;;;10.85;100.00;101387.22;5019940;28;45890;-81
2023/12/30 10:34:10;;;;;;;;;;;;;;;;;;;;;
2023/12/30 10:36:37;;;;;;;;;0.67;0.67;;;;;11.30;100.00;101429.53;5025285;28;70920;-80
2023/12/30 10:39:12;;;;;;;;;1.00;1.00;;;;;11.01;100.00;101350.41;5021147;28;47182;-81
2023/12/30 10:42:08;;;;;;;;;1.00;1.00;;;;;10.93;100.00;101316.28;5028541;28;46376;-83
2023/12/30 10:44:57;;;;;;;;;2.00;1.33;;;;;11.13;100.00;101340.19;5033530;28;45570;-86
2023/12/30 10:47:51;;;;;;;;;3.00;3.00;;;;;10.88;100.00;101283.88;5025502;28;45560;-85
2023/12/30 10:50:20;;;;;;;;;2.67;1.00;;;;;11.27;100.00;101350.22;5039011;28;45728;-82
2023/12/30 10:52:51;;;;;;;;;1.33;1.33;;;;;11.30;100.00;101350.06;5038847;28;45293;-82
2023/12/30 10:55:28;;;;;;;;;1.00;1.00;;;;;11.32;100.00;101329.72;5020940;28;45507;-85
2023/12/30 10:58:07;;;;;;;;;1.67;1.00;;;;;11.06;100.00;101269.03;5038897;28;45588;-83
2023/12/30 11:00:44;;;;;;;;;4.00;2.33;;;;;11.87;100.00;101368.00;5019937;28;46350;-82
2023/12/30 11:03:21;;;;;;;;;1.33;1.33;;;;;11.48;100.00;101291.88;5037406;28;45566;-82
2023/12/30 11:05:49;;;;;;;;;3.33;1.67;;;;;12.27;100.00;101372.41;5024906;28;45418;-83
2023/12/30 11:08:17;;;;;;;;;2.00;1.00;;;;;11.86;100.00;101313.25;5021582;28;45472;-81
2023/12/30 11:10:46;;;;;;;;;4.33;2.67;;;;;11.69;100.00;101253.00;5049992;28;46563;-81
2023/12/30 11:13:24;;;;;;;;;2.33;1.00;;;;;11.72;100.00;101244.97;5038178;28;45479;-82
2023/12/30 11:16:05;;;;;;;;;4.00;1.33;;;;;11.86;100.00;101270.84;5020441;28;45358;-81
2023/12/30 11:18:50;;;;;;;;;2.00;2.00;;;;;12.40;100.00;101366.44;5018459;28;45949;-81
2023/12/30 11:21:46;;;;;;;;;3.00;3.00;;;;;12.42;100.00;101363.72;5020421;28;47119;-81
2023/12/30 11:24:42;;;;;;;;;2.67;1.33;;;;;12.12;100.00;101330.63;5032132;28;46190;-82
2023/12/30 11:27:14;;;;;;;;;6.00;2.00;;;;;11.87;100.00;101267.28;5013410;28;45484;-81
2023/12/30 11:29:42;;;;;;;;;2.67;2.67;;;;;11.77;100.00;101247.41;5020528;28;45478;-83
2023/12/30 11:32:14;;;;;;;;;3.00;2.00;;;;;11.93;100.00;101270.50;5026625;28;47344;-83
2023/12/30 11:35:02;;;;;;;;;;;;;;;;;;;;;
2023/12/30 11:37:28;;;;;;;;;1.67;1.00;;;;;11.98;100.00;101265.84;5041218;28;69876;-81